Time;durP1;ratioP1;P1;durP2;ratioP2;P2;SDS_P1;SDS_P2;PMS_P1;PMS_P2;Temp;Humidity;BMP_temperature;BMP_pressure;BME280_temperature;BME280_humidity;BME280_pressure;Samples;Min_cycle;Max_cycle;Signal;HPM_P1;HPM_P2
2023/01/31 00:01:10;;;;;;;8.40;2.17;;;4.00;99.90;;;;;;4995018;28;20524;-70
2023/01/31 00:03:36;;;;;;;10.67;1.43;;;4.00;99.90;;;;;;5007814;28;20489;-71
2023/01/31 00:06:23;;;;;;;9.60;1.73;;;4.00;99.90;;;;;;5003959;28;20463;-70
2023/01/31 00:08:50;;;;;;;2.57;1.37;;;4.00;99.90;;;;;;4994979;28;20482;-71
2023/01/31 00:11:18;;;;;;;6.60;2.03;;;4.00;99.90;;;;;;4997124;28;20453;-71
2023/01/31 00:13:44;;;;;;;5.97;2.60;;;4.00;99.90;;;;;;5003676;28;20505;-70
2023/01/31 00:16:11;;;;;;;7.50;2.23;;;3.90;99.90;;;;;;5009681;28;20479;-70
2023/01/31 00:18:37;;;;;;;3.33;1.50;;;3.90;99.90;;;;;;5007433;28;20468;-70
2023/01/31 00:21:13;;;;;;;4.70;1.87;;;4.00;99.90;;;;;;5000014;28;20488;-71
2023/01/31 00:23:40;;;;;;;3.43;1.90;;;3.90;99.90;;;;;;5009937;28;20831;-71
2023/01/31 00:26:11;;;;;;;5.33;2.10;;;3.80;99.90;;;;;;5001644;28;20882;-71
2023/01/31 00:28:37;;;;;;;4.00;1.43;;;3.80;99.90;;;;;;4993885;28;20492;-71
2023/01/31 00:31:03;;;;;;;8.03;2.03;;;3.70;99.90;;;;;;4994667;28;21010;-70
2023/01/31 00:33:29;;;;;;;3.83;1.70;;;3.70;99.90;;;;;;5009965;28;20457;-70
2023/01/31 00:35:54;;;;;;;2.70;1.40;;;3.70;99.90;;;;;;5010361;28;20231;-71
2023/01/31 00:38:21;;;;;;;5.40;1.40;;;3.60;99.90;;;;;;4993866;28;20321;-71
2023/01/31 00:40:52;;;;;;;6.50;1.80;;;3.60;99.90;;;;;;5007728;28;20531;-70
2023/01/31 00:43:17;;;;;;;6.23;2.13;;;3.60;99.90;;;;;;5009652;28;20699;-70
2023/01/31 00:45:43;;;;;;;6.87;2.07;;;3.70;99.90;;;;;;5007176;28;20489;-71
2023/01/31 00:48:09;;;;;;;3.70;2.10;;;3.60;99.90;;;;;;5009110;28;20229;-70
2023/01/31 00:50:34;;;;;;;2.60;1.63;;;3.60;99.90;;;;;;5007638;28;20301;-71
2023/01/31 00:53:01;;;;;;;7.40;1.83;;;3.50;99.90;;;;;;5009207;28;20302;-71
2023/01/31 00:55:26;;;;;;;5.97;2.00;;;3.50;99.90;;;;;;5010361;28;20223;-71
2023/01/31 00:57:52;;;;;;;3.43;1.80;;;3.60;99.90;;;;;;4991674;28;20448;-71
2023/01/31 01:00:18;;;;;;;7.00;2.10;;;3.50;99.90;;;;;;4992367;28;20312;-71
2023/01/31 01:02:44;;;;;;;10.63;1.97;;;3.50;99.90;;;;;;5009712;28;20218;-71
2023/01/31 01:05:09;;;;;;;11.40;2.00;;;3.50;99.90;;;;;;5009751;28;20982;-71
2023/01/31 01:07:35;;;;;;;5.00;2.40;;;3.60;99.90;;;;;;5006508;28;20214;-71
2023/01/31 01:10:02;;;;;;;3.83;1.80;;;3.60;99.90;;;;;;4992336;28;20234;-71
2023/01/31 01:12:28;;;;;;;8.57;2.07;;;3.60;99.90;;;;;;4993452;28;20214;-71
2023/01/31 01:14:53;;;;;;;5.97;1.90;;;3.60;99.90;;;;;;5007175;28;20476;-71
2023/01/31 01:17:20;;;;;;;3.13;1.70;;;3.60;99.90;;;;;;4992342;28;20211;-72
2023/01/31 01:19:47;;;;;;;5.87;2.30;;;3.60;99.90;;;;;;5001905;28;20517;-71
2023/01/31 01:22:15;;;;;;;3.57;1.47;;;3.50;99.90;;;;;;4992800;28;20970;-71
2023/01/31 01:24:44;;;;;;;6.13;1.70;;;3.50;99.90;;;;;;5009027;28;20221;-71
2023/01/31 01:27:11;;;;;;;9.73;1.90;;;3.50;99.90;;;;;;5008632;28;20457;-71
2023/01/31 01:29:37;;;;;;;2.97;1.77;;;3.40;99.90;;;;;;4993211;28;20456;-70
2023/01/31 01:32:04;;;;;;;1.93;1.50;;;3.50;99.90;;;;;;4994985;28;20855;-71
2023/01/31 01:34:30;;;;;;;12.07;1.77;;;3.40;99.90;;;;;;4989804;28;20466;-71
2023/01/31 01:36:56;;;;;;;11.40;1.60;;;3.50;99.90;;;;;;5007562;28;20457;-70
2023/01/31 01:39:22;;;;;;;3.97;1.87;;;3.40;99.90;;;;;;5008129;28;20241;-71
2023/01/31 01:41:49;;;;;;;3.87;1.30;;;3.30;99.90;;;;;;5008797;28;20218;-69
2023/01/31 01:44:43;;;;;;;6.17;2.23;;;3.30;99.90;;;;;;5008311;28;20301;-71
2023/01/31 01:47:33;;;;;;;2.30;1.43;;;3.30;99.90;;;;;;4990569;28;20510;-71
2023/01/31 01:50:21;;;;;;;3.93;1.83;;;3.20;99.90;;;;;;5008612;28;20473;-71
2023/01/31 01:52:53;;;;;;;3.03;1.83;;;3.30;99.90;;;;;;4992515;28;20550;-71
2023/01/31 01:55:25;;;;;;;9.57;2.30;;;3.20;99.90;;;;;;5008969;28;20452;-71
2023/01/31 01:57:55;;;;;;;6.13;1.80;;;3.30;99.90;;;;;;5005286;28;20542;-71
2023/01/31 02:00:24;;;;;;;2.90;1.70;;;3.20;99.90;;;;;;5008883;28;20444;-71
2023/01/31 02:02:55;;;;;;;3.67;1.83;;;3.30;99.90;;;;;;4988524;28;20560;-71
2023/01/31 02:05:31;;;;;;;3.80;1.43;;;3.30;99.90;;;;;;4980958;28;20821;-71
2023/01/31 02:07:57;;;;;;;3.40;1.70;;;3.30;99.90;;;;;;5011693;28;20535;-70
2023/01/31 02:10:29;;;;;;;9.30;3.13;;;3.30;99.90;;;;;;4987619;28;20556;-71
2023/01/31 02:12:55;;;;;;;3.77;2.20;;;3.30;99.90;;;;;;5007030;28;20539;-71
2023/01/31 02:15:21;;;;;;;14.20;3.30;;;3.30;99.90;;;;;;5005467;28;20453;-71
2023/01/31 02:17:48;;;;;;;4.33;2.27;;;3.30;99.90;;;;;;4988525;28;20446;-71
2023/01/31 02:20:47;;;;;;;5.40;2.10;;;3.20;99.90;;;;;;4989997;28;20453;-71
2023/01/31 02:23:28;;;;;;;9.37;2.13;;;3.30;99.90;;;;;;5000478;28;21088;-71
2023/01/31 02:26:15;;;;;;;4.00;1.90;;;3.30;99.90;;;;;;5007698;28;20449;-71
2023/01/31 02:28:44;;;;;;;4.50;2.00;;;3.40;99.90;;;;;;5007146;28;20448;-71
2023/01/31 02:31:28;;;;;;;7.13;2.03;;;3.30;99.90;;;;;;5025637;28;20444;-71
2023/01/31 02:34:06;;;;;;;7.70;1.77;;;3.30;99.90;;;;;;5006198;28;20973;-71
2023/01/31 02:37:01;;;;;;;8.53;2.30;;;3.30;99.90;;;;;;5011016;28;21044;-69
2023/01/31 02:39:41;;;;;;;7.43;2.60;;;3.30;99.90;;;;;;5007764;28;20895;-71
2023/01/31 02:42:23;;;;;;;2.50;2.00;;;3.30;99.90;;;;;;4987698;28;20543;-71
2023/01/31 02:45:03;;;;;;;2.60;2.00;;;3.40;99.90;;;;;;4999310;28;20543;-71
2023/01/31 02:47:50;;;;;;;3.23;1.73;;;3.40;99.90;;;;;;5007852;28;20464;-71
2023/01/31 02:51:00;;;;;;;3.20;2.00;;;3.30;99.90;;;;;;5002760;28;20460;-71
2023/01/31 02:53:33;;;;;;;3.23;1.30;;;3.20;99.90;;;;;;5007478;28;20547;-71
2023/01/31 02:56:29;;;;;;;5.87;1.73;;;3.20;99.90;;;;;;4982967;28;21034;-71
2023/01/31 02:59:20;;;;;;;4.77;2.37;;;3.20;99.90;;;;;;4990528;28;20472;-71
2023/01/31 03:01:56;;;;;;;8.93;2.20;;;3.20;99.90;;;;;;4988708;28;20476;-70
2023/01/31 03:04:21;;;;;;;6.50;1.80;;;3.20;99.90;;;;;;5002177;28;20477;-71
2023/01/31 03:07:07;;;;;;;4.67;1.50;;;3.20;99.90;;;;;;5010401;28;20477;-71
2023/01/31 03:09:55;;;;;;;4.33;1.57;;;3.20;99.90;;;;;;4981868;28;20224;-71
2023/01/31 03:12:38;;;;;;;6.33;1.60;;;3.10;99.90;;;;;;5005716;28;20452;-71
2023/01/31 03:15:18;;;;;;;1.47;0.97;;;3.10;99.90;;;;;;4990968;28;20454;-71
2023/01/31 03:18:07;;;;;;;3.60;1.43;;;3.10;99.90;;;;;;5003350;28;20464;-71
2023/01/31 03:20:42;;;;;;;6.53;2.30;;;3.00;99.90;;;;;;5002944;28;20470;-71
2023/01/31 03:23:12;;;;;;;3.03;1.30;;;3.00;99.90;;;;;;5011961;28;20479;-70
2023/01/31 03:25:38;;;;;;;6.03;1.50;;;3.00;99.90;;;;;;4994224;28;20441;-71
2023/01/31 03:28:12;;;;;;;3.97;1.40;;;3.00;99.90;;;;;;4969041;28;20458;-71
2023/01/31 03:30:51;;;;;;;5.50;1.80;;;3.10;99.90;;;;;;4997821;28;20446;-71
2023/01/31 03:33:25;;;;;;;3.63;1.70;;;3.10;99.90;;;;;;5004917;28;20454;-71
2023/01/31 03:36:00;;;;;;;3.43;1.37;;;3.00;99.90;;;;;;5011702;28;20492;-72
2023/01/31 03:38:33;;;;;;;5.30;1.60;;;3.00;99.90;;;;;;4993623;28;20503;-71
2023/01/31 03:41:09;;;;;;;1.47;1.37;;;3.00;99.90;;;;;;5011261;28;20452;-70
2023/01/31 03:43:54;;;;;;;3.17;1.50;;;3.00;99.90;;;;;;4975928;28;20460;-70
2023/01/31 03:46:27;;;;;;;1.90;1.80;;;3.00;99.90;;;;;;4993564;28;20460;-71
2023/01/31 03:48:55;;;;;;;4.73;1.60;;;2.90;99.90;;;;;;5007692;28;20493;-71
2023/01/31 03:51:27;;;;;;;4.77;1.43;;;2.90;99.90;;;;;;4994163;28;20460;-71
2023/01/31 03:54:24;;;;;;;2.10;1.17;;;2.90;99.90;;;;;;5011104;28;20506;-70
2023/01/31 03:56:55;;;;;;;12.53;1.53;;;2.90;99.90;;;;;;4983407;28;20465;-70
2023/01/31 03:59:26;;;;;;;1.40;1.30;;;2.90;99.90;;;;;;5009707;28;20484;-70
2023/01/31 04:01:56;;;;;;;3.23;1.20;;;2.80;99.90;;;;;;4994200;28;20456;-71
2023/01/31 04:04:24;;;;;;;2.47;1.60;;;2.90;99.90;;;;;;5011347;28;20460;-70
2023/01/31 04:06:50;;;;;;;1.23;1.10;;;2.90;99.90;;;;;;4994640;28;20484;-71
2023/01/31 04:09:16;;;;;;;3.97;1.50;;;2.80;99.90;;;;;;4989962;28;20470;-70
2023/01/31 04:11:48;;;;;;;9.57;1.77;;;2.80;99.90;;;;;;5005164;28;20312;-69
2023/01/31 04:14:15;;;;;;;3.70;1.60;;;2.80;99.90;;;;;;5016005;28;20705;-70
2023/01/31 04:16:41;;;;;;;1.47;1.20;;;2.80;99.90;;;;;;4994830;28;20461;-68
2023/01/31 04:19:06;;;;;;;6.33;1.47;;;2.80;99.90;;;;;;5009798;28;20511;-70
2023/01/31 04:21:32;;;;;;;2.93;1.60;;;2.80;99.90;;;;;;5010801;28;20352;-70
2023/01/31 04:23:58;;;;;;;2.63;1.43;;;2.80;99.90;;;;;;5010181;28;20214;-70
2023/01/31 04:26:23;;;;;;;2.20;1.20;;;2.80;99.90;;;;;;5011435;28;20237;-70
2023/01/31 04:28:50;;;;;;;2.60;1.67;;;2.80;99.90;;;;;;4986103;28;20229;-71
2023/01/31 04:31:16;;;;;;;2.47;1.53;;;2.80;99.90;;;;;;4993057;28;20520;-71
2023/01/31 04:33:41;;;;;;;1.20;1.00;;;2.80;99.90;;;;;;4991294;28;20586;-70
2023/01/31 04:36:08;;;;;;;5.60;1.93;;;2.80;99.90;;;;;;4990859;28;20249;-70
2023/01/31 04:38:33;;;;;;;2.13;1.20;;;2.80;99.90;;;;;;5009147;28;20275;-70
2023/01/31 04:40:59;;;;;;;3.87;0.90;;;2.90;99.90;;;;;;5011378;28;20548;-70
2023/01/31 04:43:24;;;;;;;3.07;1.20;;;2.90;99.90;;;;;;5011145;28;20300;-70
2023/01/31 04:45:50;;;;;;;5.90;1.63;;;2.80;99.90;;;;;;4995720;28;20223;-70
2023/01/31 04:48:16;;;;;;;4.70;1.50;;;2.70;99.90;;;;;;4978649;28;20249;-71
2023/01/31 04:50:41;;;;;;;1.07;0.93;;;2.80;99.90;;;;;;5011524;28;20229;-70
2023/01/31 04:53:07;;;;;;;4.20;1.33;;;2.80;99.90;;;;;;5009323;28;20233;-69
2023/01/31 04:55:34;;;;;;;3.17;1.40;;;2.80;99.90;;;;;;5010068;28;20222;-70
2023/01/31 04:58:00;;;;;;;6.03;1.00;;;2.60;99.90;;;;;;5006141;28;20448;-71
2023/01/31 05:00:26;;;;;;;3.73;1.50;;;2.50;99.90;;;;;;5009055;28;20459;-70
2023/01/31 05:02:52;;;;;;;6.60;1.97;;;2.50;99.90;;;;;;4991586;28;20217;-71
2023/01/31 05:05:19;;;;;;;3.17;1.53;;;2.50;99.90;;;;;;4990870;28;20575;-70
2023/01/31 05:07:45;;;;;;;9.70;2.17;;;2.40;99.90;;;;;;4992214;28;20490;-69
2023/01/31 05:10:11;;;;;;;3.47;1.40;;;2.40;99.90;;;;;;4991535;28;20443;-69
2023/01/31 05:12:37;;;;;;;2.03;1.60;;;2.40;99.90;;;;;;5009036;28;20461;-69
2023/01/31 05:15:06;;;;;;;3.90;1.63;;;2.40;99.90;;;;;;4992426;28;20453;-69
2023/01/31 05:17:32;;;;;;;2.40;1.50;;;2.50;99.90;;;;;;4997883;28;20458;-69
2023/01/31 05:19:58;;;;;;;12.13;1.80;;;2.50;99.90;;;;;;5006032;28;20810;-69
2023/01/31 05:22:25;;;;;;;2.70;1.37;;;2.50;99.90;;;;;;5008795;28;21196;-72
2023/01/31 05:24:51;;;;;;;4.37;2.17;;;2.50;99.90;;;;;;5006250;28;20971;-70
2023/01/31 05:27:17;;;;;;;5.00;1.67;;;2.50;99.90;;;;;;5009490;28;20446;-71
2023/01/31 05:29:44;;;;;;;2.17;1.20;;;2.50;99.90;;;;;;5009535;28;20492;-71
2023/01/31 05:32:10;;;;;;;2.43;1.37;;;2.60;99.90;;;;;;5004071;28;20472;-71
2023/01/31 05:34:36;;;;;;;10.63;2.60;;;2.60;99.90;;;;;;4993660;28;20469;-71
2023/01/31 05:37:03;;;;;;;6.33;1.90;;;2.60;99.90;;;;;;5007464;28;20474;-70
2023/01/31 05:39:29;;;;;;;1.53;1.43;;;2.50;99.90;;;;;;5007718;28;20457;-71
2023/01/31 05:41:54;;;;;;;10.80;2.80;;;2.60;99.90;;;;;;4991171;28;20461;-71
2023/01/31 05:44:21;;;;;;;1.67;1.27;;;2.60;99.90;;;;;;4991928;28;20232;-71
2023/01/31 05:46:47;;;;;;;6.43;2.43;;;2.60;99.90;;;;;;5003519;28;20702;-71
2023/01/31 05:49:13;;;;;;;1.70;1.60;;;2.60;99.90;;;;;;5000154;28;20461;-71
2023/01/31 05:51:39;;;;;;;7.33;2.70;;;2.60;99.90;;;;;;4991448;28;20226;-70
2023/01/31 05:54:06;;;;;;;3.60;1.77;;;2.50;99.90;;;;;;5008742;28;20988;-71
2023/01/31 05:56:31;;;;;;;5.17;1.77;;;2.50;99.90;;;;;;5009564;28;20519;-71
2023/01/31 05:58:57;;;;;;;11.10;2.77;;;2.40;99.90;;;;;;5005440;28;20476;-71
2023/01/31 06:01:25;;;;;;;5.67;2.23;;;2.40;99.90;;;;;;5005669;28;20225;-71
2023/01/31 06:03:51;;;;;;;3.47;2.20;;;2.30;99.90;;;;;;5005860;28;20334;-70
2023/01/31 06:06:17;;;;;;;2.70;2.03;;;2.30;99.90;;;;;;5008291;28;20532;-70
2023/01/31 06:08:43;;;;;;;4.80;2.03;;;2.30;99.90;;;;;;4989874;28;20225;-70
2023/01/31 06:11:10;;;;;;;3.43;2.17;;;2.30;99.90;;;;;;5005656;28;20469;-70
2023/01/31 06:13:37;;;;;;;2.77;2.13;;;2.30;99.90;;;;;;4987662;28;20702;-71
2023/01/31 06:16:03;;;;;;;2.30;1.83;;;2.30;99.90;;;;;;5006472;28;20464;-71
2023/01/31 06:18:28;;;;;;;3.67;2.10;;;2.30;99.90;;;;;;5005294;28;20465;-71
2023/01/31 06:20:54;;;;;;;4.37;2.10;;;2.30;99.90;;;;;;4992195;28;20560;-71
2023/01/31 06:23:20;;;;;;;3.33;2.30;;;2.20;99.90;;;;;;4992392;28;20300;-71
2023/01/31 06:25:50;;;;;;;4.90;2.07;;;2.20;99.90;;;;;;5009020;28;20217;-71
2023/01/31 06:28:16;;;;;;;17.40;3.10;;;2.20;99.90;;;;;;5006326;28;20455;-71
2023/01/31 06:30:42;;;;;;;7.30;2.90;;;2.30;99.90;;;;;;5007813;28;20457;-71
2023/01/31 06:33:08;;;;;;;5.57;2.87;;;2.20;99.90;;;;;;5000206;28;20817;-71
2023/01/31 06:35:35;;;;;;;7.20;3.10;;;2.20;99.90;;;;;;5007557;28;20271;-71
2023/01/31 06:38:00;;;;;;;13.87;4.10;;;2.20;99.90;;;;;;5008874;28;20460;-70
2023/01/31 06:40:26;;;;;;;6.00;3.10;;;2.10;99.90;;;;;;4995568;28;20843;-71
2023/01/31 06:42:52;;;;;;;3.83;2.80;;;2.10;99.90;;;;;;5010947;28;20221;-71
2023/01/31 06:45:17;;;;;;;13.23;3.50;;;2.30;99.90;;;;;;4961551;28;20214;-70
2023/01/31 06:47:46;;;;;;;3.77;3.00;;;2.30;99.90;;;;;;5011380;28;20236;-70
2023/01/31 06:50:12;;;;;;;5.97;3.50;;;2.10;99.90;;;;;;5011448;28;20217;-71
2023/01/31 06:52:39;;;;;;;6.40;3.80;;;2.10;99.90;;;;;;5012708;28;21007;-70
2023/01/31 06:55:05;;;;;;;6.43;4.33;;;2.00;99.90;;;;;;5009465;28;20465;-71
2023/01/31 06:57:31;;;;;;;6.57;4.20;;;2.00;99.90;;;;;;5010921;28;20448;-71
2023/01/31 06:59:57;;;;;;;5.03;3.43;;;2.10;99.90;;;;;;5011668;28;20477;-70
2023/01/31 07:02:22;;;;;;;17.17;3.87;;;2.20;99.90;;;;;;4995144;28;20230;-70
2023/01/31 07:04:48;;;;;;;5.37;3.97;;;2.10;99.90;;;;;;5010137;28;20222;-69
2023/01/31 07:07:14;;;;;;;7.20;4.03;;;2.10;99.90;;;;;;5012132;28;20221;-71
2023/01/31 07:09:39;;;;;;;7.30;4.47;;;2.00;99.90;;;;;;5012859;28;20271;-70
2023/01/31 07:12:05;;;;;;;4.40;3.33;;;2.20;99.90;;;;;;5012502;28;20626;-71
2023/01/31 07:14:31;;;;;;;8.37;4.57;;;2.30;99.90;;;;;;4982539;28;20702;-70
2023/01/31 07:16:56;;;;;;;6.03;3.07;;;2.20;99.90;;;;;;5010763;28;20226;-70
2023/01/31 07:19:22;;;;;;;5.97;3.90;;;2.20;99.90;;;;;;5011247;28;20245;-70
2023/01/31 07:21:48;;;;;;;9.10;4.97;;;2.20;99.90;;;;;;5012990;28;20229;-71
2023/01/31 07:24:16;;;;;;;10.47;4.97;;;2.30;99.90;;;;;;5011428;28;20240;-70
2023/01/31 07:26:42;;;;;;;11.27;3.77;;;2.20;99.90;;;;;;5012588;28;20222;-71
2023/01/31 07:29:08;;;;;;;6.23;3.80;;;2.20;99.90;;;;;;4992559;28;20469;-69
2023/01/31 07:31:33;;;;;;;6.13;3.13;;;2.20;99.90;;;;;;5010176;28;20229;-69
2023/01/31 07:33:59;;;;;;;9.43;4.10;;;2.10;99.90;;;;;;4994502;28;20237;-71
2023/01/31 07:36:25;;;;;;;12.33;4.77;;;2.00;99.90;;;;;;4993671;28;20236;-70
2023/01/31 07:38:56;;;;;;;7.80;4.90;;;1.90;99.90;;;;;;5010507;28;20705;-70
2023/01/31 07:41:23;;;;;;;8.07;4.13;;;1.90;99.90;;;;;;4972828;28;20459;-71
2023/01/31 07:43:50;;;;;;;9.03;4.73;;;2.00;99.90;;;;;;4999117;28;20498;-71
2023/01/31 07:46:16;;;;;;;11.03;5.60;;;2.10;99.90;;;;;;4974268;28;20554;-71
2023/01/31 07:48:42;;;;;;;11.03;4.50;;;2.10;99.90;;;;;;4969428;28;21011;-71
2023/01/31 07:51:08;;;;;;;7.60;4.40;;;2.00;99.90;;;;;;4996668;28;20555;-70
2023/01/31 07:53:40;;;;;;;10.10;5.83;;;2.00;99.90;;;;;;5005101;28;20280;-70
2023/01/31 07:56:06;;;;;;;12.67;5.60;;;2.10;99.90;;;;;;4984576;28;20462;-71
2023/01/31 07:58:34;;;;;;;11.50;5.17;;;2.10;99.90;;;;;;5010843;28;20468;-71
2023/01/31 08:03:44;;;;;;;8.97;4.40;;;2.10;99.90;;;;;;5010723;28;20459;-70
2023/01/31 08:06:11;;;;;;;11.13;5.63;;;2.20;99.90;;;;;;5009692;28;20461;-71
2023/01/31 08:08:38;;;;;;;10.10;5.67;;;2.20;99.90;;;;;;4989565;28;20230;-70
2023/01/31 08:11:04;;;;;;;11.63;5.90;;;2.30;99.90;;;;;;5009550;28;20835;-71
2023/01/31 08:13:31;;;;;;;12.40;5.60;;;2.30;99.90;;;;;;5009860;28;21259;-71
2023/01/31 08:15:56;;;;;;;13.67;6.20;;;2.30;99.90;;;;;;4990790;28;20462;-71
2023/01/31 08:18:22;;;;;;;19.50;6.37;;;2.30;99.90;;;;;;5009176;28;21079;-71
2023/01/31 08:20:48;;;;;;;14.37;5.70;;;2.30;99.90;;;;;;4993179;28;20706;-69
2023/01/31 08:23:13;;;;;;;14.57;5.90;;;2.30;99.90;;;;;;5006696;28;20217;-71
2023/01/31 08:25:39;;;;;;;15.40;5.30;;;2.40;99.90;;;;;;5009333;28;20713;-71
2023/01/31 08:28:05;;;;;;;13.60;5.53;;;2.40;99.90;;;;;;5003738;28;20228;-70
2023/01/31 08:30:30;;;;;;;9.07;4.53;;;2.40;99.90;;;;;;5008462;28;20228;-71
2023/01/31 08:32:56;;;;;;;11.20;5.43;;;2.40;99.90;;;;;;4997248;28;20241;-71
2023/01/31 08:35:24;;;;;;;8.60;5.07;;;2.50;99.90;;;;;;4991262;28;20249;-71
2023/01/31 08:37:50;;;;;;;11.17;5.07;;;2.50;99.90;;;;;;5003743;28;20222;-71
2023/01/31 08:40:16;;;;;;;8.10;4.50;;;2.40;99.90;;;;;;5001248;28;20465;-71
2023/01/31 08:42:41;;;;;;;8.50;4.20;;;2.40;99.90;;;;;;4992676;28;20221;-71
2023/01/31 08:45:07;;;;;;;14.63;5.93;;;2.40;99.90;;;;;;5008114;28;20593;-70
2023/01/31 08:47:33;;;;;;;17.13;5.30;;;2.40;99.90;;;;;;5008527;28;20222;-71
2023/01/31 08:49:59;;;;;;;10.97;4.40;;;2.40;99.90;;;;;;5009611;28;20471;-71
2023/01/31 08:52:24;;;;;;;10.17;4.80;;;2.50;99.90;;;;;;5004654;28;20261;-70
2023/01/31 08:54:50;;;;;;;16.70;4.23;;;2.60;99.90;;;;;;4989798;28;20314;-71
2023/01/31 08:57:16;;;;;;;13.63;4.57;;;2.70;99.90;;;;;;5006575;28;20226;-71
2023/01/31 08:59:41;;;;;;;11.60;4.50;;;2.70;99.90;;;;;;4988943;28;20269;-71
2023/01/31 09:02:10;;;;;;;9.80;4.13;;;2.80;99.90;;;;;;5008170;28;20601;-71
2023/01/31 09:04:35;;;;;;;11.90;4.47;;;2.80;99.90;;;;;;5021063;28;20233;-71
2023/01/31 09:07:01;;;;;;;7.60;4.60;;;2.90;99.90;;;;;;4990085;28;20460;-69
2023/01/31 09:09:26;;;;;;;10.00;4.70;;;2.80;99.90;;;;;;5007889;28;20241;-71
2023/01/31 09:11:52;;;;;;;9.33;4.53;;;2.90;99.90;;;;;;5008779;28;20221;-70
2023/01/31 09:14:18;;;;;;;8.60;4.23;;;2.90;99.90;;;;;;4991944;28;20247;-71
2023/01/31 09:16:45;;;;;;;8.70;3.93;;;3.00;99.90;;;;;;4992610;28;20249;-69
2023/01/31 09:19:11;;;;;;;10.47;4.87;;;3.00;99.90;;;;;;5007925;28;20246;-71
2023/01/31 09:21:37;;;;;;;8.37;4.77;;;2.90;99.90;;;;;;4993068;28;20460;-71
2023/01/31 09:24:03;;;;;;;14.20;5.80;;;2.90;99.90;;;;;;5004266;28;20468;-71
2023/01/31 09:26:29;;;;;;;11.67;5.47;;;2.90;99.90;;;;;;5007312;28;20305;-71
2023/01/31 09:28:57;;;;;;;15.80;4.87;;;3.00;99.90;;;;;;5007167;28;20465;-71
2023/01/31 09:31:23;;;;;;;9.53;5.00;;;3.10;99.90;;;;;;5005819;28;20465;-71
2023/01/31 09:33:49;;;;;;;13.63;5.73;;;3.20;99.90;;;;;;5008042;28;20464;-71
2023/01/31 09:36:17;;;;;;;12.13;5.10;;;3.30;99.90;;;;;;5004945;28;20228;-71
2023/01/31 09:38:43;;;;;;;8.60;4.10;;;3.30;99.90;;;;;;5002690;28;20525;-71
2023/01/31 09:41:38;;;;;;;11.20;5.23;;;3.30;99.90;;;;;;5006108;28;20445;-70
2023/01/31 09:44:16;;;;;;;9.83;4.30;;;3.30;99.90;;;;;;4981229;28;20464;-71
2023/01/31 09:46:47;;;;;;;12.17;4.33;;;3.30;99.90;;;;;;4987771;28;20445;-71
2023/01/31 09:49:19;;;;;;;9.83;4.57;;;3.30;99.90;;;;;;4995598;28;20540;-71
2023/01/31 09:51:51;;;;;;;14.70;5.70;;;3.30;99.90;;;;;;5006455;28;20475;-71
2023/01/31 09:54:27;;;;;;;11.50;4.97;;;3.30;99.90;;;;;;5007346;28;20454;-71
2023/01/31 09:57:15;;;;;;;11.57;4.90;;;3.30;99.90;;;;;;5006485;28;20469;-71
2023/01/31 09:59:46;;;;;;;8.67;4.30;;;3.30;99.90;;;;;;5005704;28;20466;-71
2023/01/31 10:02:27;;;;;;;9.80;5.60;;;3.30;99.90;;;;;;5007366;28;20476;-71
2023/01/31 10:05:24;;;;;;;9.00;4.33;;;3.40;99.90;;;;;;4998673;28;20472;-72
2023/01/31 10:08:05;;;;;;;9.73;3.77;;;3.40;99.90;;;;;;5001101;28;20584;-70
2023/01/31 10:10:33;;;;;;;8.87;4.47;;;3.40;99.90;;;;;;4987976;28;20970;-71
2023/01/31 10:13:04;;;;;;;10.90;4.97;;;3.40;99.90;;;;;;5004859;28;20493;-71
2023/01/31 10:15:39;;;;;;;10.63;4.10;;;3.40;99.90;;;;;;5007751;28;20436;-71
2023/01/31 10:18:33;;;;;;;14.80;4.80;;;3.50;99.90;;;;;;4988380;28;20933;-71
2023/01/31 10:21:05;;;;;;;10.30;4.63;;;3.60;99.90;;;;;;5000672;28;20465;-71
2023/01/31 10:24:12;;;;;;;9.53;4.73;;;3.60;99.90;;;;;;4985869;28;20464;-72
2023/01/31 10:26:40;;;;;;;11.60;5.60;;;3.60;99.90;;;;;;4994221;28;20452;-71
2023/01/31 10:29:09;;;;;;;10.13;4.40;;;3.60;99.90;;;;;;5002059;28;20456;-71
2023/01/31 10:31:38;;;;;;;7.77;4.33;;;3.50;99.90;;;;;;4990561;28;20488;-71
2023/01/31 10:34:18;;;;;;;12.90;4.30;;;3.50;99.90;;;;;;4990356;28;20493;-71
2023/01/31 10:37:03;;;;;;;7.40;4.20;;;3.60;99.90;;;;;;5000965;28;20489;-71
2023/01/31 10:39:32;;;;;;;9.03;5.43;;;3.60;99.90;;;;;;4997778;28;20519;-72
2023/01/31 10:42:01;;;;;;;12.73;4.20;;;3.60;99.90;;;;;;5003066;28;20495;-70
2023/01/31 10:44:51;;;;;;;9.20;4.63;;;3.60;99.90;;;;;;5007862;28;21012;-71
2023/01/31 10:47:19;;;;;;;8.07;3.53;;;3.60;99.90;;;;;;5007351;28;20465;-71
2023/01/31 10:49:49;;;;;;;8.83;3.63;;;3.60;99.90;;;;;;5007578;28;20599;-71
2023/01/31 10:52:32;;;;;;;5.63;4.17;;;3.60;99.90;;;;;;5006489;28;20474;-72
2023/01/31 10:55:22;;;;;;;7.53;4.10;;;3.70;99.90;;;;;;4991391;28;20456;-71
2023/01/31 10:57:49;;;;;;;6.57;4.17;;;3.70;99.90;;;;;;5005303;28;20457;-70
2023/01/31 11:00:33;;;;;;;6.43;4.07;;;3.70;99.90;;;;;;5006966;28;20478;-71
2023/01/31 11:02:58;;;;;;;8.00;3.93;;;3.80;99.90;;;;;;5006710;28;20472;-70
2023/01/31 11:05:28;;;;;;;8.27;4.00;;;3.80;99.90;;;;;;4992594;28;20836;-71
2023/01/31 11:07:57;;;;;;;5.60;3.70;;;3.90;99.90;;;;;;5005795;28;20281;-71
2023/01/31 11:10:29;;;;;;;14.10;8.00;;;3.80;99.90;;;;;;5007920;28;20461;-71
2023/01/31 11:13:08;;;;;;;15.10;7.80;;;3.80;99.90;;;;;;5006719;28;20469;-72
2023/01/31 11:15:39;;;;;;;11.17;5.10;;;3.80;99.90;;;;;;4996725;28;20465;-71
2023/01/31 11:18:10;;;;;;;16.37;5.87;;;3.90;99.90;;;;;;4996920;28;20978;-71
2023/01/31 11:20:44;;;;;;;8.17;5.00;;;3.90;99.90;;;;;;4999475;28;20461;-71
2023/01/31 11:23:15;;;;;;;6.40;4.30;;;3.90;99.90;;;;;;5004819;28;20510;-71
2023/01/31 11:25:47;;;;;;;6.30;4.97;;;3.90;99.90;;;;;;5009907;28;20453;-70
2023/01/31 11:28:36;;;;;;;5.43;4.10;;;3.90;99.90;;;;;;5011097;28;20452;-71
2023/01/31 11:31:15;;;;;;;6.53;3.60;;;3.90;99.90;;;;;;5010863;28;20460;-71
2023/01/31 11:34:00;;;;;;;10.17;4.43;;;4.00;99.90;;;;;;5009659;28;20448;-71
2023/01/31 11:36:31;;;;;;;7.53;3.57;;;4.00;99.90;;;;;;5004051;28;20441;-71
2023/01/31 11:38:57;;;;;;;9.93;5.00;;;4.00;99.90;;;;;;5008703;28;20507;-69
2023/01/31 11:41:32;;;;;;;9.63;4.93;;;4.10;99.90;;;;;;5009958;28;20449;-72
2023/01/31 11:44:19;;;;;;;10.00;5.13;;;4.10;99.90;;;;;;4992879;28;20222;-71
2023/01/31 11:47:04;;;;;;;14.70;7.23;;;4.10;99.90;;;;;;5009619;28;20453;-70
2023/01/31 11:49:41;;;;;;;13.10;8.50;;;4.20;99.90;;;;;;4992335;28;20499;-72
2023/01/31 11:52:31;;;;;;;16.03;7.00;;;4.20;99.90;;;;;;4991698;28;20463;-71
2023/01/31 11:55:08;;;;;;;11.33;7.63;;;4.30;99.90;;;;;;4999876;28;20465;-71
2023/01/31 11:57:39;;;;;;;8.50;4.83;;;4.30;99.90;;;;;;5009610;28;20450;-71
2023/01/31 12:00:30;;;;;;;9.03;4.60;;;4.40;99.90;;;;;;5007316;28;20478;-71
2023/01/31 12:03:16;;;;;;;7.40;4.20;;;4.40;99.90;;;;;;4995835;28;20472;-71
2023/01/31 12:05:50;;;;;;;9.10;5.07;;;4.50;99.90;;;;;;4999786;28;20974;-69
2023/01/31 12:08:28;;;;;;;7.33;4.40;;;4.50;99.90;;;;;;5000069;28;20486;-71
2023/01/31 12:10:54;;;;;;;8.80;4.03;;;4.60;99.90;;;;;;4992352;28;20464;-71
2023/01/31 12:13:21;;;;;;;13.43;5.20;;;4.60;99.90;;;;;;4989553;28;20469;-71
2023/01/31 12:16:02;;;;;;;8.20;4.60;;;4.60;99.90;;;;;;5003493;28;20220;-71
2023/01/31 12:18:37;;;;;;;10.23;4.30;;;4.70;99.90;;;;;;5003216;28;20524;-71
2023/01/31 12:21:26;;;;;;;11.33;3.90;;;4.70;99.90;;;;;;4991041;28;20537;-71
2023/01/31 12:23:54;;;;;;;8.00;4.10;;;4.70;99.90;;;;;;4982718;28;20453;-71
2023/01/31 12:26:42;;;;;;;8.73;4.60;;;4.80;99.90;;;;;;5009220;28;20965;-71
2023/01/31 12:29:16;;;;;;;13.20;6.50;;;4.80;99.90;;;;;;4990777;28;20453;-72
2023/01/31 12:31:57;;;;;;;10.20;4.57;;;4.80;99.90;;;;;;5005865;28;20527;-70
2023/01/31 12:34:47;;;;;;;8.20;4.53;;;4.80;99.90;;;;;;4983115;28;20461;-71
2023/01/31 12:37:47;;;;;;;6.37;4.70;;;4.80;99.90;;;;;;5001959;28;20469;-71
2023/01/31 12:40:40;;;;;;;9.90;5.40;;;4.80;99.90;;;;;;4999508;28;20510;-71
2023/01/31 12:43:16;;;;;;;10.07;4.80;;;4.80;99.90;;;;;;4988463;28;20930;-72
2023/01/31 12:45:45;;;;;;;10.80;5.00;;;4.90;99.90;;;;;;5009696;28;20529;-71
2023/01/31 12:48:49;;;;;;;7.33;4.53;;;4.90;99.90;;;;;;5008180;28;20520;-72
2023/01/31 12:51:38;;;;;;;15.50;8.17;;;4.90;99.90;;;;;;5010389;28;20449;-72
2023/01/31 12:54:07;;;;;;;13.50;9.40;;;4.90;99.90;;;;;;5005885;28;20556;-72
2023/01/31 12:56:54;;;;;;;23.47;11.20;;;5.00;99.90;;;;;;5000086;28;20506;-70
2023/01/31 12:59:23;;;;;;;18.97;8.87;;;5.00;99.90;;;;;;5003507;28;20481;-71
2023/01/31 13:02:06;;;;;;;13.43;7.30;;;5.00;99.90;;;;;;5004806;28;20823;-72
2023/01/31 13:04:56;;;;;;;18.87;6.20;;;5.00;99.90;;;;;;5010080;28;20460;-71
2023/01/31 13:07:34;;;;;;;11.10;6.17;;;5.10;99.90;;;;;;5003495;28;20874;-72
2023/01/31 13:10:03;;;;;;;11.93;4.33;;;5.10;99.90;;;;;;5009730;28;21034;-71
2023/01/31 13:12:35;;;;;;;6.93;4.20;;;5.10;99.90;;;;;;4991438;28;20429;-72
2023/01/31 13:15:27;;;;;;;7.17;3.53;;;5.20;99.90;;;;;;5007695;28;20917;-71
2023/01/31 13:17:59;;;;;;;8.27;4.30;;;5.20;99.90;;;;;;4985415;28;20455;-71
2023/01/31 13:20:27;;;;;;;10.73;4.90;;;5.20;99.90;;;;;;4992167;28;20485;-71